| time (UTC) | temp F | wind direction | speed MPH | gust MPH | rain 1hr in | rain 24hr in | rain mn in | humidity % | barometer mb |
| 20260906233056 | 90 | 221 | 1.0 | 8.0 | 0.00 | 0.00 | 0.00 | 22 | 1016.3 |
| 20260906231604 | 91 | 163 | 0.0 | 6.0 | 0.00 | 0.00 | 0.00 | 21 | 1016.3 |
| 20260906230055 | 91 | 179 | 0.0 | 8.0 | 0.00 | 0.00 | 0.00 | 22 | 1016.3 |
| 20260906224553 | 91 | 113 | 1.0 | 5.0 | 0.00 | 0.00 | 0.00 | 21 | 1016.3 |
| 20260906223049 | 92 | 155 | 0.0 | 5.0 | 0.00 | 0.00 | 0.00 | 21 | 1016.4 |
| 20260906221551 | 92 | 224 | 0.0 | 4.0 | 0.00 | 0.00 | 0.00 | 20 | 1016.5 |
| 20260906220046 | 91 | 167 | 1.0 | 4.0 | 0.00 | 0.00 | 0.00 | 20 | 1016.8 |
| 20260906214549 | 91 | 170 | 0.0 | 7.0 | 0.00 | 0.00 | 0.00 | 20 | 1017.0 |
| 20260906213041 | 91 | 231 | 0.0 | 6.0 | 0.00 | 0.00 | 0.00 | 20 | 1017.3 |
| 20260906211540 | 90 | 360 | 0.0 | 5.0 | 0.00 | 0.00 | 0.00 | 20 | 1017.5 |
| 20260906210046 | 91 | 75 | 0.0 | 6.0 | 0.00 | 0.00 | 0.00 | 20 | 1017.8 |
| 20260906204537 | 90 | 180 | 1.0 | 6.0 | 0.00 | 0.00 | 0.00 | 20 | 1018.0 |
| 20260906203034 | 91 | 104 | 0.0 | 6.0 | 0.00 | 0.00 | 0.00 | 21 | 1018.1 |
| 20260906201531 | 90 | 191 | 1.0 | 6.0 | 0.00 | 0.00 | 0.00 | 20 | 1018.5 |
| 20260906200032 | 90 | 200 | 1.0 | 5.0 | 0.00 | 0.00 | 0.00 | 21 | 1018.6 |
| 20260906194538 | 89 | 94 | 1.0 | 8.0 | 0.00 | 0.00 | 0.00 | 22 | 1018.7 |
| 20260906193026 | 88 | 245 | 0.0 | 3.0 | 0.00 | 0.00 | 0.00 | 22 | 1018.9 |
| 20260906191525 | 88 | 184 | 1.0 | 5.0 | 0.00 | 0.00 | 0.00 | 23 | 1019.0 |
| 20260906190027 | 88 | 162 | 0.0 | 2.0 | 0.00 | 0.00 | 0.00 | 25 | 1019.3 |
| 20260906184533 | 87 | 238 | 0.0 | 7.0 | 0.00 | 0.00 | 0.00 | 25 | 1019.5 |
| 20260906183027 | 84 | 108 | 0.0 | 3.0 | 0.00 | 0.00 | 0.00 | 27 | 1019.7 |
| 20260906181546 | 86 | 183 | 0.0 | 5.0 | 0.00 | 0.00 | 0.00 | 27 | 1020.0 |
| 20260906180117 | 86 | 165 | 0.0 | 6.0 | 0.00 | 0.00 | 0.00 | 26 | 1020.3 |
| 20260906174517 | 86 | 139 | 0.0 | 6.0 | 0.00 | 0.00 | 0.00 | 28 | 1020.5 |
| 20260906173011 | 84 | 93 | 0.0 | 3.0 | 0.00 | 0.00 | 0.00 | 28 | 1020.6 |
| 20260906171511 | 83 | 107 | 0.0 | 4.0 | 0.00 | 0.00 | 0.00 | 29 | 1020.7 |
| 20260906170018 | 84 | 60 | 0.0 | 2.0 | 0.00 | 0.00 | 0.00 | 29 | 1020.7 |
| 20260906164507 | 83 | 197 | 0.0 | 4.0 | 0.00 | 0.00 | 0.00 | 30 | 1020.8 |
| 20260906163005 | 81 | 281 | 0.0 | 0.0 | 0.00 | 0.00 | 0.00 | 32 | 1020.9 |
| 20260906161501 | 78 | 146 | 0.0 | 0.0 | 0.00 | 0.00 | 0.00 | 36 | 1020.8 |
| 20260906160058 | 77 | 160 | 0.0 | 0.0 | 0.00 | 0.00 | 0.00 | 36 | 1020.8 |
| 20260906154557 | 77 | 177 | 0.0 | 0.0 | 0.00 | 0.00 | 0.00 | 36 | 1020.7 |
| 20260906153055 | 76 | 177 | 0.0 | 0.0 | 0.00 | 0.00 | 0.00 | 37 | 1020.7 |
| 20260906151554 | 75 | 177 | 0.0 | 0.0 | 0.00 | 0.00 | 0.00 | 37 | 1020.6 |
| 20260906150053 | 75 | 96 | 0.0 | 2.0 | 0.00 | 0.00 | 0.00 | 38 | 1020.7 |
| 20260906144550 | 75 | 120 | 0.0 | 4.0 | 0.00 | 0.00 | 0.00 | 38 | 1020.4 |
| 20260906143050 | 75 | 113 | 0.0 | 2.0 | 0.00 | 0.00 | 0.00 | 36 | 1020.4 |
| 20260906141546 | 72 | 63 | 0.0 | 0.0 | 0.00 | 0.00 | 0.00 | 38 | 1020.3 |
| 20260906140057 | 70 | 84 | 0.0 | 0.0 | 0.00 | 0.00 | 0.00 | 39 | 1020.3 |
| 20260906134546 | 71 | 84 | 0.0 | 0.0 | 0.00 | 0.00 | 0.00 | 38 | 1020.1 |
| 20260906133041 | 71 | 35 | 1.0 | 4.0 | 0.00 | 0.00 | 0.00 | 35 | 1019.9 |
| 20260906131539 | 71 | 78 | 0.0 | 3.0 | 0.00 | 0.00 | 0.00 | 36 | 1019.9 |
| 20260906130041 | 70 | 15 | 1.0 | 6.0 | 0.00 | 0.00 | 0.00 | 36 | 1019.8 |
| 20260906124538 | 70 | 54 | 3.0 | 6.0 | 0.00 | 0.00 | 0.00 | 36 | 1019.6 |
| 20260906123036 | 70 | 32 | 2.0 | 7.0 | 0.00 | 0.00 | 0.00 | 36 | 1019.5 |
| 20260906121536 | 71 | 30 | 0.0 | 2.0 | 0.00 | 0.00 | 0.00 | 36 | 1019.5 |
| 20260906120034 | 71 | 37 | 0.0 | 2.0 | 0.00 | 0.00 | 0.00 | 36 | 1019.5 |
| 20260906114543 | 71 | 49 | 1.0 | 4.0 | 0.00 | 0.00 | 0.00 | 36 | 1019.6 |
| 20260906113032 | 71 | 335 | 0.0 | 0.0 | 0.00 | 0.00 | 0.00 | 37 | 1019.6 |
| 20260906111531 | 71 | 15 | 0.0 | 5.0 | 0.00 | 0.00 | 0.00 | 36 | 1019.5 |
| 20260906110030 | 71 | 1 | 0.0 | 0.0 | 0.00 | 0.00 | 0.00 | 39 | 1019.5 |
| 20260906104531 | 72 | 273 | 0.0 | 1.0 | 0.00 | 0.00 | 0.00 | 38 | 1019.6 |
| 20260906103030 | 72 | 283 | 0.0 | 0.0 | 0.00 | 0.00 | 0.00 | 40 | 1019.5 |
| 20260906101529 | 73 | 59 | 1.0 | 4.0 | 0.00 | 0.00 | 0.00 | 39 | 1019.6 |
| 20260906100031 | 73 | 270 | 0.0 | 0.0 | 0.00 | 0.00 | 0.00 | 36 | 1019.6 |
| 20260906094525 | 72 | 334 | 0.0 | 0.0 | 0.00 | 0.00 | 0.00 | 36 | 1019.3 |
| 20260906093025 | 72 | 268 | 0.0 | 0.0 | 0.00 | 0.00 | 0.00 | 36 | 1019.2 |
| 20260906091531 | 73 | 359 | 0.0 | 0.0 | 0.00 | 0.00 | 0.00 | 35 | 1019.1 |
| 20260906090024 | 74 | 48 | 0.0 | 1.0 | 0.00 | 0.00 | 0.00 | 35 | 1018.9 |
| 20260906084530 | 73 | 360 | 0.0 | 0.0 | 0.00 | 0.00 | 0.00 | 36 | 1019.0 |
| 20260906083023 | 73 | 1 | 0.0 | 0.0 | 0.00 | 0.00 | 0.00 | 36 | 1019.2 |
| 20260906081528 | 73 | 15 | 0.0 | 2.0 | 0.00 | 0.00 | 0.00 | 36 | 1019.4 |
| 20260906080020 | 72 | 39 | 2.0 | 7.0 | 0.00 | 0.00 | 0.00 | 36 | 1019.6 |
| 20260906074521 | 72 | 64 | 4.0 | 8.0 | 0.00 | 0.00 | 0.00 | 36 | 1019.6 |
| 20260906073022 | 72 | 26 | 4.0 | 7.0 | 0.00 | 0.00 | 0.00 | 36 | 1019.7 |
| 20260906071518 | 72 | 25 | 3.0 | 7.0 | 0.00 | 0.00 | 0.00 | 36 | 1019.7 |
| 20260906070017 | 73 | 38 | 2.0 | 8.0 | 0.00 | 0.00 | 0.00 | 35 | 1019.7 |
| 20260906064523 | 74 | 57 | 3.0 | 7.0 | 0.00 | 0.00 | 0.00 | 35 | 1019.8 |
| 20260906063013 | 74 | 36 | 1.0 | 5.0 | 0.00 | 0.00 | 0.00 | 35 | 1019.8 |
| 20260906061511 | 75 | 24 | 0.0 | 5.0 | 0.00 | 0.00 | 0.00 | 34 | 1019.7 |
| 20260906060007 | 75 | 65 | 2.0 | 7.0 | 0.00 | 0.00 | 0.00 | 34 | 1019.5 |
| 20260906054505 | 76 | 41 | 2.0 | 8.0 | 0.00 | 0.00 | 0.00 | 33 | 1019.4 |
| 20260906053005 | 76 | 35 | 0.0 | 2.0 | 0.00 | 0.00 | 0.00 | 33 | 1019.4 |
| 20260906051505 | 77 | 315 | 0.0 | 0.0 | 0.00 | 0.00 | 0.00 | 32 | 1019.3 |
| 20260906050012 | 78 | 310 | 0.0 | 2.0 | 0.00 | 0.00 | 0.00 | 31 | 1019.3 |
| 20260906044506 | 78 | 309 | 0.0 | 3.0 | 0.00 | 0.00 | 0.00 | 31 | 1019.3 |
| 20260906043009 | 78 | 2 | 0.0 | 2.0 | 0.00 | 0.00 | 0.00 | 32 | 1019.3 |
| 20260906041504 | 77 | 299 | 0.0 | 2.0 | 0.00 | 0.00 | 0.00 | 33 | 1019.4 |
| 20260906040008 | 77 | 6 | 0.0 | 0.0 | 0.00 | 0.00 | 0.00 | 33 | 1019.5 |
| 20260906034503 | 79 | 19 | 0.0 | 1.0 | 0.00 | 0.00 | 0.00 | 32 | 1019.5 |
| 20260906033003 | 79 | 296 | 0.0 | 2.0 | 0.00 | 0.00 | 0.00 | 33 | 1019.4 |
| 20260906031503 | 78 | 352 | 0.0 | 0.0 | 0.00 | 0.00 | 0.00 | 33 | 1019.1 |
| 20260906030004 | 79 | 297 | 0.0 | 0.0 | 0.00 | 0.00 | 0.00 | 33 | 1018.9 |
| 20260906024501 | 80 | 352 | 0.0 | 0.0 | 0.00 | 0.00 | 0.00 | 33 | 1018.6 |
| 20260906023002 | 80 | 333 | 0.0 | 2.0 | 0.00 | 0.00 | 0.00 | 33 | 1018.5 |
| 20260906021502 | 80 | 333 | 0.0 | 0.0 | 0.00 | 0.00 | 0.00 | 33 | 1018.3 |
| 20260906020003 | 81 | 300 | 0.0 | 0.0 | 0.00 | 0.00 | 0.00 | 33 | 1018.2 |
| 20260906014600 | 82 | 266 | 0.0 | 0.0 | 0.00 | 0.00 | 0.00 | 32 | 1018.2 |
| 20260906013059 | 83 | 236 | 0.0 | 1.0 | 0.00 | 0.00 | 0.00 | 31 | 1018.1 |
| 20260906011607 | 83 | 217 | 0.0 | 1.0 | 0.00 | 0.00 | 0.00 | 31 | 1018.1 |
| 20260906004600 | 85 | 278 | 0.0 | 3.0 | 0.00 | 0.00 | 0.00 | 30 | 1018.1 |
| 20260906003057 | 85 | 206 | 0.0 | 4.0 | 0.00 | 0.00 | 0.00 | 29 | 1018.2 |
| 20260906001556 | 86 | 200 | 0.0 | 5.0 | 0.00 | 0.00 | 0.00 | 29 | 1018.1 |
| 20260906000105 | 87 | 226 | 0.0 | 5.0 | 0.00 | 0.00 | 0.00 | 28 | 1018.1 |
| 20260905234557 | 86 | 133 | 0.0 | 0.0 | 0.00 | 0.00 | 0.00 | 28 | 1017.9 |